Time;durP1;ratioP1;P1;durP2;ratioP2;P2;SDS_P1;SDS_P2;PMS_P1;PMS_P2;Temp;Humidity;BMP_temperature;BMP_pressure;BME280_temperature;BME280_humidity;BME280_pressure;Samples;Min_cycle;Max_cycle;Signal;HPM_P1;HPM_P2
2022/07/09 00:01:23;;;;;;;2.35;0.93;;;;;;;26.99;34.55;98384.28;5000583;28;20046;-80
2022/07/09 00:03:51;;;;;;;3.33;0.90;;;;;;;27.00;34.22;98377.91;5000000;28;20022;-80
2022/07/09 00:06:16;;;;;;;5.65;0.98;;;;;;;26.96;34.20;98374.84;4984483;28;20409;-80
2022/07/09 00:08:42;;;;;;;2.05;1.00;;;;;;;26.92;34.28;98370.22;5016571;28;20034;-79
2022/07/09 00:11:07;;;;;;;3.65;1.00;;;;;;;26.93;34.43;98367.31;4998945;28;20022;-80
2022/07/09 00:13:33;;;;;;;1.90;1.13;;;;;;;26.95;34.08;98365.19;5000921;28;20110;-80
2022/07/09 00:15:58;;;;;;;1.55;0.85;;;;;;;26.89;33.93;98366.94;5000577;28;20038;-81
2022/07/09 00:18:24;;;;;;;4.15;1.10;;;;;;;26.91;33.93;98369.38;4999730;28;20029;-74
2022/07/09 00:20:49;;;;;;;1.50;0.90;;;;;;;26.88;34.05;98370.66;5000595;28;20026;-74
2022/07/09 00:23:15;;;;;;;6.75;1.10;;;;;;;26.83;33.90;98378.56;5015199;28;20135;-75
2022/07/09 00:25:40;;;;;;;4.18;1.10;;;;;;;26.77;34.12;98363.41;5000900;28;20056;-73
2022/07/09 00:28:06;;;;;;;6.35;1.13;;;;;;;26.76;33.99;98363.66;5000191;28;20073;-74
2022/07/09 00:30:31;;;;;;;2.38;1.00;;;;;;;26.78;33.96;98372.28;4982374;28;20031;-74
2022/07/09 00:32:57;;;;;;;2.67;1.10;;;;;;;26.73;34.18;98367.63;5000809;28;20029;-74
2022/07/09 00:35:22;;;;;;;2.10;1.10;;;;;;;26.73;34.49;98353.44;5001439;28;20026;-74
2022/07/09 00:37:48;;;;;;;2.03;1.00;;;;;;;26.67;34.38;98357.84;4983053;28;20069;-73
2022/07/09 00:40:13;;;;;;;5.07;0.95;;;;;;;26.67;34.35;98347.94;5017080;28;20431;-74
2022/07/09 00:42:39;;;;;;;2.45;0.88;;;;;;;26.64;34.48;98342.19;5015645;28;20077;-74
2022/07/09 00:45:05;;;;;;;2.70;1.20;;;;;;;26.63;34.61;98346.75;4999066;28;20053;-74
2022/07/09 00:47:30;;;;;;;3.05;0.90;;;;;;;26.62;34.41;98338.94;5001593;28;20021;-74
2022/07/09 00:49:56;;;;;;;3.75;1.00;;;;;;;26.61;34.41;98348.03;4982367;28;20038;-75
2022/07/09 00:52:21;;;;;;;2.65;1.10;;;;;;;26.60;34.03;98344.53;4967651;28;20069;-74
2022/07/09 00:54:47;;;;;;;1.40;0.90;;;;;;;26.60;34.00;98335.66;5004066;28;20117;-74
2022/07/09 00:57:12;;;;;;;1.48;0.98;;;;;;;26.58;34.15;98343.94;4985856;28;20478;-74
2022/07/09 00:59:38;;;;;;;2.22;0.82;;;;;;;26.60;34.19;98333.81;4987125;28;20030;-74
2022/07/09 01:02:04;;;;;;;2.60;1.02;;;;;;;26.47;34.13;98334.03;5002915;28;20050;-73
2022/07/09 01:04:30;;;;;;;1.58;1.00;;;;;;;26.47;34.14;98334.03;5001575;28;20065;-74
2022/07/09 01:06:57;;;;;;;2.03;0.80;;;;;;;26.48;33.87;98333.00;5003744;28;20045;-74
2022/07/09 01:09:23;;;;;;;3.45;1.10;;;;;;;26.43;34.09;98333.69;4987914;28;20034;-73
2022/07/09 01:11:49;;;;;;;2.60;1.00;;;;;;;26.42;34.39;98336.59;5001847;28;20030;-73
2022/07/09 01:14:14;;;;;;;1.73;0.93;;;;;;;26.39;34.54;98335.16;4971452;28;20042;-73
2022/07/09 01:16:40;;;;;;;2.30;1.00;;;;;;;26.38;34.66;98338.06;5019008;28;20418;-73
2022/07/09 01:19:06;;;;;;;1.80;0.90;;;;;;;26.34;34.62;98341.22;4986134;28;20088;-74
2022/07/09 01:21:31;;;;;;;1.33;0.90;;;;;;;26.32;34.36;98335.28;5003629;28;20025;-73
2022/07/09 01:23:57;;;;;;;2.28;0.88;;;;;;;26.32;34.50;98337.16;5018436;28;20024;-74
2022/07/09 01:26:25;;;;;;;6.00;1.10;;;;;;;26.32;34.21;98340.63;4986466;28;20042;-73
2022/07/09 01:28:51;;;;;;;3.65;1.40;;;;;;;26.29;34.22;98335.72;5019922;28;20025;-74
2022/07/09 01:31:16;;;;;;;1.75;0.90;;;;;;;26.30;34.17;98334.69;5018153;28;20061;-75
2022/07/09 01:33:42;;;;;;;4.22;1.10;;;;;;;26.28;34.44;98333.28;5002410;28;20033;-72
2022/07/09 01:36:08;;;;;;;1.55;1.00;;;;;;;26.17;34.48;98319.66;5003444;28;20409;-73
2022/07/09 01:38:33;;;;;;;2.20;1.00;;;;;;;26.16;34.44;98320.69;4985826;28;20031;-74
2022/07/09 01:40:59;;;;;;;2.35;0.90;;;;;;;26.16;34.36;98323.38;4985272;28;20045;-73
2022/07/09 01:43:25;;;;;;;1.75;0.93;;;;;;;26.15;34.36;98336.97;5001854;28;20018;-73
2022/07/09 01:45:50;;;;;;;1.27;0.90;;;;;;;26.10;34.36;98334.19;5019764;28;20022;-73
2022/07/09 01:48:16;;;;;;;4.63;1.27;;;;;;;26.06;34.35;98343.69;5017842;28;20035;-74
2022/07/09 01:50:41;;;;;;;3.05;1.13;;;;;;;26.02;34.59;98337.97;5002313;28;20036;-73
2022/07/09 01:53:07;;;;;;;2.63;1.20;;;;;;;25.99;34.64;98335.75;5002941;28;20022;-74
2022/07/09 01:55:33;;;;;;;2.47;1.20;;;;;;;26.00;34.54;98337.41;4987669;28;20034;-73
2022/07/09 01:57:58;;;;;;;2.78;1.10;;;;;;;25.98;34.62;98339.47;4986490;28;20034;-73
2022/07/09 02:00:24;;;;;;;4.30;1.20;;;;;;;26.01;34.57;98336.34;5002430;28;20030;-73
2022/07/09 02:02:49;;;;;;;6.68;1.00;;;;;;;25.98;34.51;98340.31;5001450;28;20026;-74
2022/07/09 02:05:15;;;;;;;2.05;1.10;;;;;;;25.97;34.79;98348.56;4985685;28;20500;-73
2022/07/09 02:07:40;;;;;;;5.60;1.08;;;;;;;25.95;34.49;98350.59;5002580;28;20030;-73
2022/07/09 02:10:06;;;;;;;2.33;0.98;;;;;;;25.92;34.45;98357.22;5001587;28;20042;-73
2022/07/09 02:12:32;;;;;;;1.42;0.80;;;;;;;25.94;34.69;98354.31;5002682;28;20069;-72
2022/07/09 02:14:57;;;;;;;1.88;1.02;;;;;;;25.95;34.60;98359.44;5001745;28;20132;-73
2022/07/09 02:17:23;;;;;;;5.38;1.20;;;;;;;25.85;34.68;98361.00;5002907;28;20022;-72
2022/07/09 02:19:48;;;;;;;2.45;1.13;;;;;;;25.81;34.90;98358.78;5003750;28;20046;-73
2022/07/09 02:22:14;;;;;;;4.47;1.25;;;;;;;25.84;34.89;98357.53;5002688;28;20037;-72
2022/07/09 02:24:39;;;;;;;2.03;1.30;;;;;;;25.79;34.99;98355.53;5001302;28;20106;-73
2022/07/09 02:27:05;;;;;;;3.78;1.20;;;;;;;25.82;34.78;98365.78;4984930;28;20556;-72
2022/07/09 02:29:31;;;;;;;2.65;1.00;;;;;;;25.82;34.91;98364.94;5002624;28;20032;-73
2022/07/09 02:31:57;;;;;;;5.72;1.10;;;;;;;25.83;34.97;98361.25;5017825;28;20042;-76
2022/07/09 02:34:23;;;;;;;4.20;1.00;;;;;;;25.83;34.67;98358.56;5002617;28;20079;-73
2022/07/09 02:36:48;;;;;;;2.28;1.23;;;;;;;25.76;35.25;98355.97;5018927;28;20108;-73
2022/07/09 02:39:14;;;;;;;1.92;1.20;;;;;;;25.75;35.16;98350.88;4984506;28;20065;-73
2022/07/09 02:41:39;;;;;;;2.65;1.17;;;;;;;25.72;35.00;98354.78;5001339;28;20466;-76
2022/07/09 02:44:05;;;;;;;4.65;1.17;;;;;;;25.71;35.22;98361.16;4986022;28;20073;-72
2022/07/09 02:46:30;;;;;;;6.32;1.42;;;;;;;25.55;34.72;98353.75;5001379;28;20041;-73
2022/07/09 02:48:56;;;;;;;2.90;1.25;;;;;;;25.48;35.19;98348.50;4969816;28;20068;-78
2022/07/09 02:51:21;;;;;;;5.47;1.30;;;;;;;25.41;35.85;98353.94;5001374;28;20026;-77
2022/07/09 02:53:47;;;;;;;22.40;1.60;;;;;;;25.50;36.58;98356.28;4982752;28;20046;-80
2022/07/09 02:56:12;;;;;;;9.07;1.50;;;;;;;25.58;35.55;98356.78;4993291;28;20038;-80
2022/07/09 02:58:38;;;;;;;4.78;1.40;;;;;;;25.59;35.73;98365.66;4993027;28;20508;-80
2022/07/09 03:01:05;;;;;;;3.80;1.10;;;;;;;25.60;35.57;98361.91;5008967;28;20050;-80
2022/07/09 03:03:31;;;;;;;4.03;1.35;;;;;;;25.63;35.37;98364.16;4976850;28;20033;-80
2022/07/09 03:05:57;;;;;;;3.58;1.10;;;;;;;25.64;35.57;98368.47;5009385;28;20485;-80
2022/07/09 03:08:22;;;;;;;2.20;1.25;;;;;;;25.66;35.38;98365.56;4993314;28;20030;-79
2022/07/09 03:10:51;;;;;;;2.30;1.17;;;;;;;25.70;35.43;98375.59;4977220;28;20073;-79
2022/07/09 03:13:17;;;;;;;2.83;1.30;;;;;;;25.76;35.42;98361.34;4992811;28;20018;-80
2022/07/09 03:15:42;;;;;;;2.65;1.25;;;;;;;25.82;35.08;98363.09;4992362;28;20430;-80
2022/07/09 03:18:08;;;;;;;2.38;1.13;;;;;;;25.95;34.86;98351.41;5009198;28;20070;-79
2022/07/09 03:20:35;;;;;;;2.00;1.25;;;;;;;26.52;33.75;98361.75;4992928;28;20080;-79
2022/07/09 03:23:01;;;;;;;3.17;1.00;;;;;;;26.47;33.63;98342.88;4992988;28;20486;-79
2022/07/09 03:25:27;;;;;;;3.75;1.42;;;;;;;26.59;33.73;98355.47;4992495;28;20106;-80
2022/07/09 03:27:52;;;;;;;5.38;1.23;;;;;;;26.64;33.41;98351.03;4992575;28;20042;-79
2022/07/09 03:30:18;;;;;;;4.97;1.35;;;;;;;27.11;32.74;98358.31;4992659;28;20030;-79
2022/07/09 03:32:44;;;;;;;3.15;1.27;;;;;;;27.78;31.72;98352.53;4993831;28;20030;-81
2022/07/09 03:35:10;;;;;;;6.53;1.30;;;;;;;28.42;30.58;98348.88;4992400;28;20036;-80
2022/07/09 03:37:35;;;;;;;3.97;1.38;;;;;;;28.90;29.82;98351.25;4992473;28;20572;-81
2022/07/09 03:40:02;;;;;;;3.20;1.13;;;;;;;29.32;29.21;98340.88;4992612;28;20103;-86
2022/07/09 03:42:27;;;;;;;6.85;1.42;;;;;;;29.82;28.48;98340.94;4994051;28;20470;-84
2022/07/09 03:44:53;;;;;;;15.73;1.50;;;;;;;30.48;28.18;98336.22;4997197;28;20034;-86
2022/07/09 03:47:18;;;;;;;9.18;1.40;;;;;;;31.04;27.05;98335.00;4994491;28;20038;-80
2022/07/09 03:49:44;;;;;;;3.92;1.20;;;;;;;31.61;26.34;98332.63;5008494;28;20501;-79
2022/07/09 03:52:09;;;;;;;9.30;1.30;;;;;;;32.14;25.50;98325.22;4991924;28;20034;-80
2022/07/09 03:54:35;;;;;;;4.70;1.25;;;;;;;32.64;24.94;98326.34;4991934;28;20461;-79
2022/07/09 03:57:00;;;;;;;5.22;1.20;;;;;;;33.04;24.55;98328.44;4994809;28;20042;-80
2022/07/09 03:59:26;;;;;;;4.15;1.30;;;;;;;33.09;24.24;98323.81;5009279;28;20030;-79
2022/07/09 04:01:51;;;;;;;7.40;1.52;;;;;;;32.88;25.48;98320.38;5009046;28;20050;-79
2022/07/09 04:04:17;;;;;;;4.75;1.23;;;;;;;32.47;25.65;98329.28;4992171;28;20490;-79
2022/07/09 04:06:42;;;;;;;6.90;1.50;;;;;;;33.08;24.68;98324.09;4976149;28;20042;-78
2022/07/09 04:09:08;;;;;;;6.18;1.35;;;;;;;33.54;23.93;98330.19;4976193;28;20405;-79
2022/07/09 04:11:34;;;;;;;12.00;1.30;;;;;;;32.98;24.38;98333.03;4993017;28;20106;-79
2022/07/09 04:14:02;;;;;;;11.50;1.33;;;;;;;32.31;25.59;98338.47;4991549;28;20066;-77
2022/07/09 04:16:28;;;;;;;3.67;1.10;;;;;;;31.82;26.68;98341.56;4992217;28;20117;-77
2022/07/09 04:18:53;;;;;;;3.35;1.20;;;;;;;31.32;26.98;98341.09;4991516;28;20184;-79
2022/07/09 04:21:21;;;;;;;5.15;1.35;;;;;;;30.96;27.44;98347.13;4991775;28;20023;-78
2022/07/09 04:23:50;;;;;;;5.93;1.40;;;;;;;30.60;28.16;98346.00;5007334;28;20048;-79
2022/07/09 04:26:16;;;;;;;8.13;1.40;;;;;;;30.35;27.80;98355.47;4991919;28;20546;-80
2022/07/09 04:28:42;;;;;;;6.20;1.40;;;;;;;30.08;28.29;98348.22;5005390;28;20112;-70
2022/07/09 04:31:07;;;;;;;5.25;1.45;;;;;;;29.90;29.08;98359.31;5015529;28;20025;-70
2022/07/09 04:33:33;;;;;;;7.18;1.65;;;;;;;29.77;29.75;98365.88;5022041;28;20476;-69
2022/07/09 04:35:59;;;;;;;8.10;1.27;;;;;;;29.61;30.15;98362.19;5035420;28;20056;-69
2022/07/09 04:38:24;;;;;;;4.93;1.40;;;;;;;29.48;30.33;98363.38;5033951;28;20496;-70
2022/07/09 04:40:50;;;;;;;1.88;1.10;;;;;;;29.50;30.57;98357.75;5035195;28;20029;-70
2022/07/09 04:43:16;;;;;;;5.82;1.30;;;;;;;29.76;29.86;98370.44;5050357;28;20033;-69
2022/07/09 04:45:41;;;;;;;5.35;1.40;;;;;;;30.53;28.81;98365.06;5033970;28;20045;-69
2022/07/09 04:48:07;;;;;;;2.90;1.40;;;;;;;30.79;28.52;98363.41;5035086;28;20033;-70
2022/07/09 04:50:32;;;;;;;2.33;1.48;;;;;;;30.72;28.04;98367.38;5034828;28;20080;-69
2022/07/09 04:52:58;;;;;;;2.20;1.27;;;;;;;31.70;26.19;98364.22;5034891;28;20029;-69
2022/07/09 04:55:23;;;;;;;3.47;1.20;;;;;;;32.28;25.60;98352.50;5034890;28;20531;-69
2022/07/09 04:57:49;;;;;;;3.03;1.30;;;;;;;33.62;24.25;98366.69;5033622;28;20025;-69
2022/07/09 05:00:15;;;;;;;5.22;1.15;;;;;;;34.22;23.37;98363.09;5033764;28;20026;-70
2022/07/09 05:02:42;;;;;;;13.53;1.90;;;;;;;35.50;21.53;98372.03;5033297;28;20041;-69
2022/07/09 05:05:07;;;;;;;3.17;1.20;;;;;;;36.52;20.74;98372.56;5050022;28;20036;-70
2022/07/09 05:07:33;;;;;;;6.28;1.40;;;;;;;37.39;19.11;98366.72;5049783;28;20021;-70
2022/07/09 05:10:01;;;;;;;5.97;1.50;;;;;;;38.33;18.73;98359.78;5017491;28;20080;-69
2022/07/09 05:12:27;;;;;;;5.30;1.20;;;;;;;39.12;17.51;98370.38;5033536;28;20033;-69
2022/07/09 05:14:52;;;;;;;3.72;1.10;;;;;;;39.85;16.87;98357.09;5034696;28;20040;-69
2022/07/09 05:17:18;;;;;;;2.10;1.02;;;;;;;39.27;17.12;98356.31;5034149;28;20029;-69
2022/07/09 05:19:44;;;;;;;2.08;1.10;;;;;;;38.81;17.62;98380.16;5033387;28;20034;-70
2022/07/09 05:22:09;;;;;;;2.25;1.20;;;;;;;39.62;16.82;98386.47;5034468;28;20396;-71
2022/07/09 05:24:35;;;;;;;2.30;1.10;;;;;;;38.53;18.22;98372.09;5034382;28;20037;-70
2022/07/09 05:27:00;;;;;;;4.65;1.10;;;;;;;36.74;20.35;98373.88;5017643;28;20089;-70
2022/07/09 05:29:26;;;;;;;2.85;1.25;;;;;;;35.72;21.03;98378.81;4985915;28;20054;-69
2022/07/09 05:31:52;;;;;;;2.78;1.33;;;;;;;34.81;21.98;98382.22;5014580;28;20026;-70
2022/07/09 05:34:17;;;;;;;4.43;1.40;;;;;;;34.02;23.25;98388.44;5009947;28;20038;-71
2022/07/09 05:36:43;;;;;;;5.20;1.52;;;;;;;33.28;24.88;98380.84;5013047;28;20033;-68
2022/07/09 05:39:08;;;;;;;3.92;1.33;;;;;;;32.76;25.80;98379.28;5012678;28;20030;-69
2022/07/09 05:41:34;;;;;;;5.45;1.40;;;;;;;32.27;26.44;98377.88;5013242;28;20030;-69
2022/07/09 05:44:03;;;;;;;3.53;1.63;;;;;;;31.98;27.49;98380.25;4980604;28;20041;-69
2022/07/09 05:46:29;;;;;;;3.83;1.88;;;;;;;31.82;27.92;98382.06;5013154;28;20036;-67
2022/07/09 05:48:55;;;;;;;5.28;1.45;;;;;;;31.82;28.40;98384.75;4996925;28;20033;-68
2022/07/09 05:51:20;;;;;;;2.95;1.67;;;;;;;31.90;27.88;98378.88;4996231;28;20033;-69
2022/07/09 05:53:46;;;;;;;4.65;1.30;;;;;;;31.85;27.60;98381.53;4997027;28;20057;-67
2022/07/09 05:56:11;;;;;;;3.63;1.40;;;;;;;31.39;28.03;98384.81;4996426;28;20026;-68
2022/07/09 05:58:37;;;;;;;7.15;1.67;;;;;;;31.05;28.80;98371.69;5012847;28;20034;-67
2022/07/09 06:01:04;;;;;;;5.57;1.52;;;;;;;30.89;29.23;98370.75;4979925;28;20049;-67
2022/07/09 06:03:30;;;;;;;2.20;1.60;;;;;;;30.83;29.23;98369.88;4996763;28;20061;-68
2022/07/09 06:05:55;;;;;;;9.48;1.70;;;;;;;30.88;29.29;98371.81;4996187;28;20410;-69
2022/07/09 06:08:21;;;;;;;8.00;1.80;;;;;;;30.88;29.68;98371.00;4980385;28;20037;-69
2022/07/09 06:10:46;;;;;;;5.07;1.60;;;;;;;30.91;29.11;98373.19;5012316;28;20061;-69
2022/07/09 06:13:12;;;;;;;4.30;1.70;;;;;;;31.02;29.00;98364.91;4996238;28;20026;-71
2022/07/09 06:15:37;;;;;;;11.13;4.22;;;;;;;31.26;29.33;98369.13;4980508;28;20504;-74
2022/07/09 06:18:03;;;;;;;8.43;2.85;;;;;;;31.23;29.00;98369.63;4998618;28;20041;-71
2022/07/09 06:20:28;;;;;;;15.60;3.08;;;;;;;31.09;29.70;98363.88;4996043;28;20481;-70
2022/07/09 06:22:54;;;;;;;13.85;4.05;;;;;;;30.93;29.97;98357.56;4979608;28;20034;-73
2022/07/09 06:25:19;;;;;;;11.80;4.13;;;;;;;30.83;30.21;98364.50;5012235;28;20033;-70
2022/07/09 06:27:45;;;;;;;18.98;6.93;;;;;;;30.72;30.78;98353.91;4996084;28;20049;-70
2022/07/09 06:30:10;;;;;;;14.77;8.57;;;;;;;30.62;30.68;98354.66;4995882;28;20022;-74
2022/07/09 06:32:36;;;;;;;10.23;5.43;;;;;;;30.57;30.96;98358.13;4995950;28;20054;-69
2022/07/09 06:35:02;;;;;;;8.48;3.40;;;;;;;30.32;30.61;98353.28;5012976;28;20449;-70
2022/07/09 06:37:28;;;;;;;8.07;3.08;;;;;;;30.24;30.58;98353.75;4996041;28;20111;-72
2022/07/09 06:39:55;;;;;;;7.03;3.50;;;;;;;30.19;31.11;98354.53;4996245;28;20045;-70
2022/07/09 06:42:21;;;;;;;13.13;7.85;;;;;;;30.19;30.66;98348.31;5011988;28;20029;-74
2022/07/09 06:44:46;;;;;;;9.43;4.70;;;;;;;30.17;31.12;98343.16;4995659;28;20425;-71
2022/07/09 06:47:12;;;;;;;8.02;4.70;;;;;;;30.17;31.03;98350.44;5011659;28;20037;-69
2022/07/09 06:49:37;;;;;;;9.43;4.47;;;;;;;30.17;31.17;98342.38;4995512;28;20072;-71
2022/07/09 06:52:03;;;;;;;11.73;4.28;;;;;;;30.25;31.19;98340.03;4992480;28;20068;-80
2022/07/09 06:54:29;;;;;;;16.10;7.18;;;;;;;30.30;31.17;98347.34;5000835;28;20132;-79
2022/07/09 06:56:56;;;;;;;9.00;6.20;;;;;;;30.15;32.00;98339.13;4984877;28;20038;-75
2022/07/09 06:59:22;;;;;;;11.30;4.45;;;;;;;30.10;31.89;98342.59;5017482;28;20410;-76
2022/07/09 07:01:48;;;;;;;7.70;2.78;;;;;;;30.02;31.56;98334.97;5000107;28;20109;-82
2022/07/09 07:04:14;;;;;;;10.85;3.67;;;;;;;29.99;31.77;98347.03;5000017;28;20030;-74
2022/07/09 07:06:41;;;;;;;5.60;3.30;;;;;;;30.19;31.70;98340.22;4999825;28;20065;-75
2022/07/09 07:09:06;;;;;;;7.07;3.38;;;;;;;30.29;31.21;98345.72;5000678;28;20034;-76
2022/07/09 07:11:32;;;;;;;7.20;3.28;;;;;;;30.21;31.45;98346.19;4997875;28;20026;-73
2022/07/09 07:13:57;;;;;;;9.27;4.60;;;;;;;30.34;31.26;98344.97;5001511;28;20034;-74
2022/07/09 07:16:22;;;;;;;8.77;5.10;;;;;;;30.29;31.29;98345.72;5017318;28;20390;-69
2022/07/09 07:18:48;;;;;;;8.07;4.38;;;;;;;30.34;31.47;98347.66;4999760;28;20046;-68
2022/07/09 07:21:13;;;;;;;6.03;3.97;;;;;;;30.40;31.82;98358.22;5001649;28;20027;-73
2022/07/09 07:23:39;;;;;;;10.00;3.38;;;;;;;30.28;31.88;98354.84;4967073;28;20125;-74
2022/07/09 07:26:04;;;;;;;7.13;2.72;;;;;;;30.30;31.05;98350.84;5000928;28;20493;-70
2022/07/09 07:28:30;;;;;;;7.70;2.47;;;;;;;30.32;31.23;98364.06;4997639;28;20070;-73
2022/07/09 07:30:56;;;;;;;4.65;2.05;;;;;;;30.24;31.20;98359.94;4984003;28;20037;-74
2022/07/09 07:33:23;;;;;;;4.40;2.17;;;;;;;30.26;30.90;98357.81;5001812;28;20026;-72
2022/07/09 07:35:49;;;;;;;4.53;2.10;;;;;;;30.33;31.10;98365.69;5000563;28;20041;-72
2022/07/09 07:38:14;;;;;;;6.75;2.38;;;;;;;30.33;31.08;98367.56;4999713;28;20030;-72
2022/07/09 07:40:40;;;;;;;4.88;1.80;;;;;;;30.23;31.05;98365.59;5017142;28;20056;-75
2022/07/09 07:43:05;;;;;;;4.30;1.85;;;;;;;30.22;31.24;98363.94;4999113;28;20106;-72
2022/07/09 07:45:31;;;;;;;3.13;2.05;;;;;;;30.24;30.74;98364.53;5001766;28;20025;-73
2022/07/09 07:47:57;;;;;;;4.00;1.88;;;;;;;30.30;30.73;98366.19;4984050;28;20474;-71
2022/07/09 07:50:22;;;;;;;3.90;1.60;;;;;;;30.34;30.47;98370.00;4967232;28;20049;-72
2022/07/09 07:52:48;;;;;;;3.28;1.73;;;;;;;30.44;30.47;98364.75;4985113;28;20065;-72
2022/07/09 07:55:14;;;;;;;7.57;1.80;;;;;;;30.49;30.02;98364.78;4998454;28;20124;-72
2022/07/09 07:57:39;;;;;;;3.85;1.70;;;;;;;30.66;30.27;98363.81;5017218;28;20030;-72
2022/07/09 08:00:05;;;;;;;3.90;1.40;;;;;;;30.81;30.13;98366.63;4982645;28;20026;-72
2022/07/09 08:02:31;;;;;;;3.67;1.60;;;;;;;30.91;30.00;98368.59;5000460;28;20245;-72
2022/07/09 08:04:57;;;;;;;5.15;1.63;;;;;;;30.84;29.98;98363.44;5016736;28;20514;-73
2022/07/09 08:07:22;;;;;;;6.38;1.58;;;;;;;30.93;29.54;98369.16;4982949;28;20038;-71
2022/07/09 08:09:48;;;;;;;4.22;1.35;;;;;;;30.99;29.73;98370.03;5001159;28;20037;-73
2022/07/09 08:12:13;;;;;;;6.63;1.40;;;;;;;31.11;29.36;98367.16;5016471;28;20056;-71
2022/07/09 08:14:39;;;;;;;4.57;1.52;;;;;;;31.18;29.62;98373.91;4999814;28;20037;-73
2022/07/09 08:17:05;;;;;;;3.85;1.27;;;;;;;31.29;29.30;98373.97;5000783;28;20057;-72
2022/07/09 08:19:30;;;;;;;3.13;1.58;;;;;;;31.34;29.10;98361.34;4999303;28;20414;-72
2022/07/09 08:21:56;;;;;;;2.85;1.40;;;;;;;31.27;29.17;98374.25;4967514;28;20050;-74
2022/07/09 08:24:22;;;;;;;3.72;1.10;;;;;;;31.27;29.16;98370.75;5000777;28;20109;-73
2022/07/09 08:26:47;;;;;;;2.53;1.20;;;;;;;31.19;29.30;98362.06;4987910;28;20133;-72
2022/07/09 08:29:13;;;;;;;2.45;1.35;;;;;;;31.19;29.01;98370.16;5016192;28;20041;-71
2022/07/09 08:31:38;;;;;;;3.20;1.30;;;;;;;31.17;29.42;98360.72;4999226;28;20034;-74
2022/07/09 08:34:04;;;;;;;3.85;1.20;;;;;;;31.05;29.62;98362.81;5001276;28;20030;-71
2022/07/09 08:36:29;;;;;;;5.57;1.30;;;;;;;30.93;29.44;98366.47;4999024;28;20145;-72
2022/07/09 08:38:55;;;;;;;5.40;1.40;;;;;;;30.84;29.48;98363.44;5000906;28;20034;-73
2022/07/09 08:41:20;;;;;;;3.17;1.30;;;;;;;30.77;29.87;98362.81;5001714;28;20030;-73
2022/07/09 08:43:50;;;;;;;3.65;1.35;;;;;;;30.72;29.61;98367.38;4984579;28;20038;-73
2022/07/09 08:46:15;;;;;;;2.58;1.45;;;;;;;30.66;29.69;98348.50;4999841;28;20088;-72
2022/07/09 08:48:41;;;;;;;4.70;1.45;;;;;;;30.63;29.76;98367.88;4985279;28;20101;-73
2022/07/09 08:51:06;;;;;;;6.10;1.20;;;;;;;30.53;30.11;98354.31;4982627;28;20037;-72
2022/07/09 08:53:32;;;;;;;4.38;1.33;;;;;;;30.49;29.98;98350.50;4983646;28;20045;-73
2022/07/09 08:55:57;;;;;;;5.05;1.50;;;;;;;30.57;29.79;98357.28;4999706;28;20493;-72
2022/07/09 08:58:23;;;;;;;3.50;1.30;;;;;;;30.59;29.77;98353.28;4998512;28;20042;-73
2022/07/09 09:00:49;;;;;;;2.85;1.40;;;;;;;30.72;29.69;98354.72;4968377;28;20060;-72
2022/07/09 09:03:14;;;;;;;4.97;1.45;;;;;;;30.74;29.53;98352.59;5015642;28;20018;-72
2022/07/09 09:05:40;;;;;;;2.95;1.50;;;;;;;30.73;29.55;98355.56;4999943;28;20038;-73
2022/07/09 09:08:23;;;;;;;6.70;1.70;;;;;;;30.73;29.69;98359.03;5000400;28;20037;-72
2022/07/09 09:10:49;;;;;;;9.30;1.90;;;;;;;30.78;29.70;98356.38;4997900;28;20596;-71
2022/07/09 09:13:17;;;;;;;5.03;1.80;;;;;;;30.84;29.53;98355.34;5015599;28;20038;-72
2022/07/09 09:15:43;;;;;;;2.25;1.40;;;;;;;30.87;29.59;98359.41;5001802;28;20034;-73
2022/07/09 09:18:09;;;;;;;3.88;1.60;;;;;;;30.83;29.09;98356.41;4987804;28;20062;-71
2022/07/09 09:20:35;;;;;;;7.00;1.77;;;;;;;30.85;29.30;98356.16;5019310;28;20030;-72
2022/07/09 09:23:02;;;;;;;2.60;1.48;;;;;;;30.93;29.22;98354.84;5002041;28;20061;-72
2022/07/09 09:25:28;;;;;;;4.93;1.40;;;;;;;30.98;29.09;98360.31;5004404;28;20140;-72
2022/07/09 09:27:55;;;;;;;3.65;1.48;;;;;;;31.00;29.09;98355.50;5018871;28;20042;-72
2022/07/09 09:30:20;;;;;;;3.88;1.50;;;;;;;30.99;29.26;98353.84;4986177;28;20048;-73
2022/07/09 09:32:59;;;;;;;5.72;1.50;;;;;;;31.03;28.95;98363.84;5026774;28;20026;-72
2022/07/09 09:35:35;;;;;;;5.65;1.40;;;;;;;31.04;29.33;98361.97;5013896;28;20061;-72
2022/07/09 09:38:01;;;;;;;5.13;1.63;;;;;;;31.12;28.80;98353.41;4997620;28;20033;-72
2022/07/09 09:40:27;;;;;;;5.72;1.73;;;;;;;31.20;29.20;98350.22;4981370;28;20056;-71
2022/07/09 09:42:52;;;;;;;1.55;1.30;;;;;;;31.30;28.69;98354.84;4997884;28;20034;-72
2022/07/09 09:45:18;;;;;;;4.60;1.50;;;;;;;31.36;28.60;98353.81;4998010;28;20049;-72
2022/07/09 09:47:48;;;;;;;3.60;1.50;;;;;;;31.40;28.95;98364.88;4998334;28;20046;-72
2022/07/09 09:50:23;;;;;;;3.05;1.55;;;;;;;31.42;28.43;98361.91;5014014;28;20041;-71
2022/07/09 09:52:50;;;;;;;3.40;1.50;;;;;;;31.44;28.62;98363.28;4997594;28;20029;-72
2022/07/09 09:55:17;;;;;;;7.23;1.57;;;;;;;31.44;28.88;98362.44;4980927;28;20069;-72
2022/07/09 09:57:42;;;;;;;5.57;1.50;;;;;;;31.50;28.31;98361.41;4997315;28;20277;-72
2022/07/09 10:00:09;;;;;;;3.28;1.42;;;;;;;31.43;28.47;98355.44;5013881;28;20030;-72
2022/07/09 10:02:35;;;;;;;3.30;1.50;;;;;;;31.34;28.28;98352.44;4997071;28;20057;-73
2022/07/09 10:05:01;;;;;;;5.88;1.60;;;;;;;31.36;28.60;98355.69;5013656;28;20044;-71
2022/07/09 10:07:26;;;;;;;3.67;1.48;;;;;;;31.34;28.63;98353.25;4996985;28;20034;-71
2022/07/09 10:09:59;;;;;;;5.20;1.50;;;;;;;31.29;28.87;98357.81;4996669;28;20449;-72
2022/07/09 10:12:35;;;;;;;2.90;1.38;;;;;;;31.17;28.95;98350.75;4997455;28;20508;-72
2022/07/09 10:15:01;;;;;;;2.63;1.30;;;;;;;31.16;28.76;98349.09;5013897;28;20030;-72
2022/07/09 10:17:27;;;;;;;3.72;1.73;;;;;;;31.07;28.72;98339.88;5014605;28;20605;-72
2022/07/09 10:20:04;;;;;;;3.78;1.33;;;;;;;31.01;28.60;98343.63;4981034;28;20052;-71
2022/07/09 10:22:43;;;;;;;3.77;1.30;;;;;;;30.96;28.97;98352.50;4997327;28;20045;-72
2022/07/09 10:25:10;;;;;;;6.88;1.42;;;;;;;30.88;28.92;98339.47;4996741;28;20030;-72
2022/07/09 10:27:43;;;;;;;3.40;1.27;;;;;;;30.81;29.01;98338.91;4996470;28;20026;-72
2022/07/09 10:30:09;;;;;;;5.82;1.50;;;;;;;30.76;28.97;98339.69;5013031;28;20564;-72
2022/07/09 10:32:41;;;;;;;4.17;1.57;;;;;;;30.66;29.17;98326.13;4980596;28;20117;-72
2022/07/09 10:35:06;;;;;;;3.35;1.60;;;;;;;30.59;29.62;98331.72;5013555;28;20049;-72
2022/07/09 10:37:38;;;;;;;7.85;1.33;;;;;;;30.44;29.12;98324.34;4996705;28;20025;-73
2022/07/09 10:40:16;;;;;;;5.65;1.50;;;;;;;30.32;28.94;98334.44;5014283;28;20474;-72
2022/07/09 10:42:43;;;;;;;3.35;1.27;;;;;;;30.24;29.07;98334.91;5013920;28;20022;-71
2022/07/09 10:45:35;;;;;;;6.50;1.27;;;;;;;30.11;29.36;98317.31;5012684;28;20042;-72
2022/07/09 10:48:01;;;;;;;2.33;1.35;;;;;;;29.98;29.58;98323.88;4991997;28;20274;-73
2022/07/09 10:50:28;;;;;;;7.75;1.48;;;;;;;29.98;29.40;98323.06;4959865;28;20042;-72
2022/07/09 10:52:54;;;;;;;4.40;1.40;;;;;;;29.95;29.22;98310.94;4976201;28;20510;-72
2022/07/09 10:55:21;;;;;;;7.47;1.70;;;;;;;29.89;29.63;98314.66;4976183;28;20121;-72
2022/07/09 10:57:46;;;;;;;4.47;1.33;;;;;;;29.86;29.50;98304.41;4959413;28;20485;-71
2022/07/09 11:00:19;;;;;;;2.85;1.20;;;;;;;29.80;29.33;98302.72;4959401;28;20066;-72
2022/07/09 11:02:54;;;;;;;3.55;1.30;;;;;;;29.73;28.95;98300.19;4975673;28;20054;-71
2022/07/09 11:05:20;;;;;;;2.90;1.30;;;;;;;29.72;28.96;98299.38;4959971;28;20069;-72
2022/07/09 11:08:04;;;;;;;2.30;1.33;;;;;;;29.67;28.92;98306.59;4991850;28;20073;-72
2022/07/09 11:10:31;;;;;;;7.38;1.30;;;;;;;29.58;29.12;98298.94;4976238;28;20030;-72
2022/07/09 11:12:59;;;;;;;3.92;1.42;;;;;;;29.51;29.02;98305.59;4975784;28;20527;-72
2022/07/09 11:15:27;;;;;;;3.83;1.40;;;;;;;29.50;29.22;98298.59;4975659;28;20038;-72
2022/07/09 11:18:03;;;;;;;2.15;1.20;;;;;;;29.43;28.71;98298.81;4975729;28;20425;-72
2022/07/09 11:20:29;;;;;;;7.15;1.50;;;;;;;29.45;28.58;98296.66;4975551;28;20041;-71
2022/07/09 11:23:00;;;;;;;4.50;1.48;;;;;;;29.42;28.66;98281.84;4975673;28;20490;-73
2022/07/09 11:25:26;;;;;;;5.40;1.40;;;;;;;29.36;28.82;98285.53;5002606;28;20068;-71
2022/07/09 11:27:53;;;;;;;5.97;1.27;;;;;;;29.31;28.45;98287.34;5011909;28;20041;-73
2022/07/09 11:30:19;;;;;;;3.22;1.10;;;;;;;29.38;28.02;98285.28;5012019;28;20033;-72